createdAt,value
2018-05-12T00:00:08.005Z,41.43
2018-05-12T00:02:35.548Z,44.47
2018-05-12T00:05:03.077Z,45.53
2018-05-12T00:07:30.718Z,41.30
2018-05-12T00:09:58.245Z,39.75
2018-05-12T00:12:25.760Z,43.43
2018-05-12T00:14:53.634Z,44.30
2018-05-12T00:17:21.084Z,46.97
2018-05-12T00:19:48.604Z,47.10
2018-05-12T00:22:16.351Z,55.92
2018-05-12T00:24:43.880Z,43.50
2018-05-12T00:27:11.408Z,44.40
2018-05-12T00:29:39.108Z,48.45
2018-05-12T00:32:06.633Z,59.28
2018-05-12T00:34:34.331Z,47.83
2018-05-12T00:37:02.340Z,48.53
2018-05-12T00:39:30.394Z,44.22
2018-05-12T00:41:57.912Z,36.78
2018-05-12T00:44:25.482Z,46.53
2018-05-12T00:46:53.012Z,46.40
2018-05-12T00:49:20.545Z,51.65
2018-05-12T00:51:48.312Z,43.75
2018-05-12T00:54:15.844Z,37.33
2018-05-12T00:56:43.410Z,45.40
2018-05-12T00:59:11.124Z,42.92
2018-05-12T01:01:38.659Z,44.67
2018-05-12T01:04:06.181Z,44.05
2018-05-12T01:06:33.748Z,57.92
2018-05-12T01:09:01.272Z,54.45
2018-05-12T01:11:28.805Z,49.70
2018-05-12T01:13:56.777Z,44.70
2018-05-12T01:16:24.308Z,52.60
2018-05-12T01:18:51.852Z,51.85
2018-05-12T01:21:19.428Z,52.00
2018-05-12T01:23:47.115Z,59.67
2018-05-12T01:26:14.640Z,55.17
2018-05-12T01:28:42.943Z,54.70
2018-05-12T01:31:10.784Z,54.05
2018-05-12T01:33:38.312Z,46.83
2018-05-12T01:36:06.276Z,53.70
2018-05-12T01:38:33.801Z,55.50
2018-05-12T01:41:01.328Z,60.33
2018-05-12T01:43:29.160Z,50.17
2018-05-12T01:45:56.684Z,54.33
2018-05-12T01:48:24.217Z,63.75
2018-05-12T01:50:51.861Z,55.20
2018-05-12T01:53:19.384Z,48.72
2018-05-12T01:55:46.942Z,53.13
2018-05-12T01:58:14.500Z,58.15
2018-05-12T02:00:42.020Z,51.03
2018-05-12T02:03:09.559Z,52.08
2018-05-12T02:05:37.528Z,59.60
2018-05-12T02:08:05.056Z,61.47
2018-05-12T02:10:32.584Z,58.75
2018-05-12T02:13:00.280Z,58.75
2018-05-12T02:15:27.800Z,55.65
2018-05-12T02:17:55.329Z,74.82
2018-05-12T02:20:22.892Z,60.63
2018-05-12T02:22:50.416Z,59.92
2018-05-12T02:25:17.945Z,52.50
2018-05-12T02:27:45.641Z,57.03
2018-05-12T02:30:13.165Z,61.78
2018-05-12T02:32:40.689Z,72.37
2018-05-12T02:35:08.731Z,65.15
2018-05-12T02:37:36.276Z,62.53
2018-05-12T02:40:03.806Z,55.45
2018-05-12T02:42:31.517Z,65.82
2018-05-12T02:44:59.041Z,67.25
2018-05-12T02:47:26.567Z,57.60
2018-05-12T02:49:54.130Z,55.55
2018-05-12T02:52:21.717Z,59.28
2018-05-12T02:54:49.250Z,64.47
2018-05-12T02:57:16.814Z,75.85
2018-05-12T02:59:44.343Z,64.03
2018-05-12T03:02:11.905Z,53.87
2018-05-12T03:04:39.852Z,75.32
2018-05-12T03:07:07.381Z,60.25
2018-05-12T03:09:34.907Z,59.67
2018-05-12T03:12:02.536Z,56.00
2018-05-12T03:14:30.056Z,58.80
2018-05-12T03:16:57.584Z,54.40
2018-05-12T03:19:25.308Z,59.30
2018-05-12T03:21:52.907Z,59.95
2018-05-12T03:24:20.520Z,55.45
2018-05-12T03:26:48.296Z,54.88
2018-05-12T03:29:15.815Z,71.72
2018-05-12T03:31:43.335Z,55.72
2018-05-12T03:34:10.880Z,57.92
2018-05-12T03:36:38.401Z,58.95
2018-05-12T03:39:05.920Z,55.08
2018-05-12T03:41:33.758Z,50.88
2018-05-12T03:44:01.285Z,55.60
2018-05-12T03:46:29.840Z,51.85
2018-05-12T03:48:58.257Z,54.78
2018-05-12T03:51:26.929Z,71.55
2018-05-12T03:53:54.752Z,63.97
2018-05-12T03:56:22.483Z,78.65
2018-05-12T03:58:49.996Z,70.50
2018-05-12T04:01:17.508Z,76.30
2018-05-12T04:03:45.524Z,72.90
2018-05-12T04:06:24.860Z,60.85
2018-05-12T04:09:04.268Z,72.47
2018-05-12T04:11:43.662Z,85.68
2018-05-12T04:14:11.451Z,72.65
2018-05-12T04:16:38.976Z,70.05
2018-05-12T04:19:06.500Z,80.60
2018-05-12T04:21:34.440Z,67.07
2018-05-12T04:24:01.970Z,75.10
2018-05-12T04:26:29.492Z,66.47
2018-05-12T04:28:57.217Z,67.93
2018-05-12T04:31:24.740Z,70.05
2018-05-12T04:33:52.260Z,64.12
2018-05-12T04:36:19.992Z,55.15
2018-05-12T04:38:47.529Z,70.78
2018-05-12T04:41:15.059Z,58.50
2018-05-12T04:43:43.080Z,62.95
2018-05-12T04:46:10.625Z,60.35
2018-05-12T04:48:38.148Z,64.20
2018-05-12T04:51:05.864Z,65.40
2018-05-12T04:53:33.389Z,67.90
2018-05-12T04:56:00.951Z,63.50
2018-05-12T04:58:28.748Z,62.50
2018-05-12T05:00:56.368Z,70.97
2018-05-12T05:03:23.896Z,77.05
2018-05-12T05:05:52.217Z,59.97
2018-05-12T05:08:19.834Z,78.28
2018-05-12T05:10:47.290Z,58.85
2018-05-12T05:13:14.865Z,65.75
2018-05-12T05:15:42.392Z,74.10
2018-05-12T05:18:09.923Z,68.10
2018-05-12T05:20:37.484Z,67.22
2018-05-12T05:23:05.004Z,69.15
2018-05-12T05:25:32.525Z,62.77
2018-05-12T05:28:00.060Z,75.00
2018-05-12T05:30:27.576Z,62.80
2018-05-12T05:32:55.523Z,64.43
2018-05-12T05:35:23.159Z,62.67
2018-05-12T05:37:50.676Z,71.37
2018-05-12T05:40:18.390Z,70.53
2018-05-12T05:42:46.140Z,86.80
2018-05-12T05:45:13.664Z,71.65
2018-05-12T05:47:41.200Z,67.87
2018-05-12T05:50:09.131Z,75.50
2018-05-12T05:52:36.676Z,70.27
2018-05-12T05:55:04.193Z,66.63
2018-05-12T05:57:31.916Z,72.90
2018-05-12T05:59:59.433Z,60.60
2018-05-12T06:02:26.948Z,61.60
2018-05-12T06:04:54.792Z,66.17
2018-05-12T06:07:22.308Z,66.00
2018-05-12T06:09:49.819Z,68.33
2018-05-12T06:12:17.396Z,68.17
2018-05-12T06:14:44.912Z,69.53
2018-05-12T06:17:12.428Z,68.43
2018-05-12T06:19:40.352Z,66.50
2018-05-12T06:22:07.881Z,60.40
2018-05-12T06:24:35.401Z,66.57
2018-05-12T06:27:02.977Z,65.23
2018-05-12T06:29:30.617Z,68.07
2018-05-12T06:31:58.136Z,63.77
2018-05-12T06:34:25.919Z,65.33
2018-05-12T06:36:53.437Z,62.07
2018-05-12T06:39:20.956Z,68.30
2018-05-12T06:41:48.533Z,56.50
2018-05-12T06:44:16.051Z,68.67
2018-05-12T06:46:43.626Z,67.33
2018-05-12T06:49:11.150Z,65.27
2018-05-12T06:51:38.674Z,57.93
2018-05-12T06:54:07.221Z,59.77
2018-05-12T06:56:37.456Z,60.83
2018-05-12T06:59:05.700Z,61.33
2018-05-12T07:01:34.177Z,57.90
2018-05-12T07:04:02.796Z,60.03
2018-05-12T07:06:31.648Z,55.93
2018-05-12T07:08:59.451Z,60.03
2018-05-12T07:11:27.096Z,64.30
2018-05-12T07:13:55.419Z,57.03
2018-05-12T07:16:25.028Z,61.27
2018-05-12T07:18:53.276Z,62.60
2018-05-12T07:21:21.631Z,64.67
2018-05-12T07:23:49.673Z,61.07
2018-05-12T07:26:18.199Z,62.27
2018-05-12T07:28:46.130Z,53.50
2018-05-12T07:31:13.692Z,64.63
2018-05-12T07:33:41.365Z,59.23
2018-05-12T07:36:09.978Z,54.13
2018-05-12T07:38:37.621Z,58.97
2018-05-12T07:41:05.761Z,53.03
2018-05-12T07:43:34.498Z,56.50
2018-05-12T07:46:03.696Z,50.60
2018-05-12T07:48:32.676Z,54.93
2018-05-12T07:51:02.227Z,59.07
2018-05-12T07:53:29.799Z,55.03
2018-05-12T07:55:57.518Z,58.60
2018-05-12T07:58:27.637Z,60.10
2018-05-12T08:00:56.125Z,57.83
2018-05-12T08:03:25.569Z,57.57
2018-05-12T08:05:54.309Z,50.33
2018-05-12T08:08:22.280Z,50.83
2018-05-12T08:10:50.285Z,47.03
2018-05-12T08:13:18.858Z,48.73
2018-05-12T08:15:46.805Z,46.80
2018-05-12T08:18:16.893Z,49.53
2018-05-12T08:20:44.888Z,55.20
2018-05-12T08:23:12.449Z,45.47
2018-05-12T08:25:40.189Z,52.20
2018-05-12T08:28:08.677Z,51.53
2018-05-12T08:30:36.792Z,47.87
2018-05-12T08:33:04.944Z,55.40
2018-05-12T08:35:33.467Z,49.60
2018-05-12T08:38:01.910Z,47.30
2018-05-12T08:40:30.503Z,49.27
2018-05-12T08:42:58.050Z,54.73
2018-05-12T08:45:26.716Z,46.43
2018-05-12T08:47:56.239Z,43.70
2018-05-12T08:50:24.344Z,51.50
2018-05-12T08:52:52.410Z,46.40
2018-05-12T08:55:21.945Z,49.30
2018-05-12T08:57:50.770Z,46.00
2018-05-12T09:00:18.536Z,46.93
2018-05-12T09:02:47.014Z,42.10
2018-05-12T09:05:14.987Z,41.20
2018-05-12T09:07:43.837Z,39.77
2018-05-12T09:10:12.562Z,45.60
2018-05-12T09:12:40.428Z,41.83
2018-05-12T09:15:08.501Z,43.07
2018-05-12T09:17:36.442Z,39.97
2018-05-12T09:20:04.665Z,36.80
2018-05-12T09:22:32.588Z,36.37
2018-05-12T09:25:00.775Z,34.77
2018-05-12T09:27:28.549Z,29.60
2018-05-12T09:29:56.132Z,34.47
2018-05-12T09:32:24.236Z,31.50
2018-05-12T09:34:52.357Z,35.77
2018-05-12T09:37:19.912Z,29.00
2018-05-12T09:39:47.797Z,29.13
2018-05-12T09:42:15.394Z,26.97
2018-05-12T09:44:42.862Z,24.63
2018-05-12T09:47:11.073Z,25.50
2018-05-12T09:49:38.592Z,24.57
2018-05-12T09:52:06.110Z,22.80
2018-05-12T09:54:33.916Z,21.33
2018-05-12T09:57:01.429Z,20.27
2018-05-12T09:59:29.101Z,19.93
2018-05-12T10:01:56.758Z,21.10
2018-05-12T10:04:24.398Z,20.10
2018-05-12T10:06:51.964Z,21.60
2018-05-12T10:09:19.784Z,35.13
2018-05-12T10:11:47.321Z,23.53
2018-05-12T10:14:14.839Z,15.77
2018-05-12T10:16:42.419Z,15.10
2018-05-12T10:19:09.980Z,16.23
2018-05-12T10:21:37.501Z,19.27
2018-05-12T10:24:05.994Z,15.90
2018-05-12T10:26:33.884Z,12.93
2018-05-12T10:29:01.820Z,21.27
2018-05-12T10:31:31.491Z,22.40
2018-05-12T10:33:59.101Z,13.83
2018-05-12T10:36:26.672Z,16.03
2018-05-12T10:38:54.241Z,15.27
2018-05-12T10:41:21.768Z,13.60
2018-05-12T10:43:49.305Z,19.97
2018-05-12T10:46:16.861Z,21.60
2018-05-12T10:48:44.380Z,17.93
2018-05-12T10:51:11.896Z,22.47
2018-05-12T10:53:39.452Z,18.00
2018-05-12T10:56:06.984Z,21.90
2018-05-12T10:58:34.503Z,17.77
2018-05-12T11:01:02.235Z,20.97
2018-05-12T11:03:29.749Z,9.77
2018-05-12T11:05:57.268Z,13.47
2018-05-12T11:08:25.013Z,19.10
2018-05-12T11:10:52.525Z,12.47
2018-05-12T11:13:20.050Z,11.30
2018-05-12T11:15:47.617Z,8.40
2018-05-12T11:18:15.122Z,11.50
2018-05-12T11:20:42.661Z,13.17
2018-05-12T11:23:10.369Z,13.87
2018-05-12T11:25:37.890Z,15.10
2018-05-12T11:28:05.413Z,14.33
2018-05-12T11:30:33.203Z,15.30
2018-05-12T11:33:00.733Z,15.70
2018-05-12T11:35:28.257Z,21.43
2018-05-12T11:37:55.929Z,10.87
2018-05-12T11:40:23.457Z,12.27
2018-05-12T11:42:50.984Z,33.23
2018-05-12T11:45:18.918Z,11.50
2018-05-12T11:47:46.441Z,26.57
2018-05-12T11:50:14.184Z,17.73
2018-05-12T11:52:42.659Z,12.40
2018-05-12T11:55:10.176Z,12.70
2018-05-12T11:57:37.692Z,14.63
2018-05-12T12:00:05.344Z,14.53
2018-05-12T12:02:32.910Z,11.50
2018-05-12T12:05:00.388Z,8.70
2018-05-12T12:07:28.176Z,7.40
2018-05-12T12:09:55.711Z,9.40
2018-05-12T12:12:23.236Z,11.07
2018-05-12T12:14:50.880Z,7.53
2018-05-12T12:17:18.397Z,8.63
2018-05-12T12:19:45.917Z,12.67
2018-05-12T12:22:13.844Z,19.67
2018-05-12T12:24:41.364Z,13.30
2018-05-12T12:27:08.874Z,8.20
2018-05-12T12:29:36.528Z,11.70
2018-05-12T12:32:04.044Z,8.30
2018-05-12T12:34:31.560Z,9.40
2018-05-12T12:36:59.300Z,8.43
2018-05-12T12:39:26.860Z,8.87
2018-05-12T12:41:54.373Z,10.37
2018-05-12T12:44:22.089Z,7.23
2018-05-12T12:46:49.611Z,11.70
2018-05-12T12:49:17.157Z,9.60
2018-05-12T12:51:44.802Z,8.43
2018-05-12T12:54:12.241Z,8.23
2018-05-12T12:56:39.879Z,9.50
2018-05-12T12:59:07.909Z,10.50
2018-05-12T13:01:35.534Z,12.07
2018-05-12T13:04:03.089Z,5.20
2018-05-12T13:06:30.827Z,5.00
2018-05-12T13:08:58.357Z,6.40
2018-05-12T13:11:25.891Z,9.57
2018-05-12T13:13:53.492Z,6.83
2018-05-12T13:16:21.008Z,6.00
2018-05-12T13:18:48.526Z,5.53
2018-05-12T13:21:16.185Z,7.90
2018-05-12T13:23:43.708Z,22.97
2018-05-12T13:26:11.220Z,9.93
2018-05-12T13:28:38.941Z,5.50
2018-05-12T13:31:06.457Z,5.50
2018-05-12T13:33:33.974Z,5.77
2018-05-12T13:36:01.540Z,7.47
2018-05-12T13:38:29.129Z,6.60
2018-05-12T13:40:56.661Z,6.40
2018-05-12T13:43:24.220Z,7.70
2018-05-12T13:45:51.887Z,4.33
2018-05-12T13:48:19.400Z,6.37
2018-05-12T13:50:47.068Z,5.80
2018-05-12T13:53:14.605Z,5.17
2018-05-12T13:55:42.138Z,5.03
2018-05-12T13:58:09.739Z,5.40
2018-05-12T14:00:37.253Z,5.50
2018-05-12T14:03:04.765Z,4.73
2018-05-12T14:05:32.305Z,6.23
2018-05-12T14:07:59.853Z,8.53
2018-05-12T14:10:27.365Z,5.20
2018-05-12T14:12:55.066Z,7.27
2018-05-12T14:15:22.622Z,5.47
2018-05-12T14:17:50.157Z,8.13
2018-05-12T14:20:17.921Z,4.67
2018-05-12T14:22:45.457Z,4.77
2018-05-12T14:25:12.966Z,5.93
2018-05-12T14:27:40.653Z,7.90
2018-05-12T14:30:08.465Z,7.10
2018-05-12T14:32:37.700Z,7.37
2018-05-12T14:35:05.845Z,7.90
2018-05-12T14:37:34.056Z,6.93
2018-05-12T14:40:02.814Z,9.20
2018-05-12T14:42:30.670Z,13.40
2018-05-12T14:44:58.609Z,5.80
2018-05-12T14:47:26.130Z,8.63
2018-05-12T14:49:53.676Z,7.17
2018-05-12T14:52:21.188Z,8.47
2018-05-12T14:54:48.709Z,6.03
2018-05-12T14:57:16.866Z,6.63
2018-05-12T14:59:44.396Z,7.30
2018-05-12T15:02:12.185Z,6.33
2018-05-12T15:04:39.939Z,7.50
2018-05-12T15:07:09.548Z,9.10
2018-05-12T15:09:37.076Z,5.63
2018-05-12T15:12:04.884Z,8.00
2018-05-12T15:14:32.435Z,5.10
2018-05-12T15:17:00.188Z,5.93
2018-05-12T15:19:27.846Z,5.63
2018-05-12T15:21:55.360Z,4.73
2018-05-12T15:24:22.893Z,7.53
2018-05-12T15:26:50.701Z,11.80
2018-05-12T15:29:18.235Z,8.83
2018-05-12T15:31:46.589Z,6.10
2018-05-12T15:34:14.326Z,6.33
2018-05-12T15:36:41.833Z,6.13
2018-05-12T15:39:09.572Z,10.40
2018-05-12T15:41:37.655Z,9.50
2018-05-12T15:44:05.223Z,8.53
2018-05-12T15:46:32.716Z,5.20
2018-05-12T15:49:01.857Z,7.77
2018-05-12T15:51:29.834Z,5.20
2018-05-12T15:53:57.599Z,9.00
2018-05-12T15:56:25.277Z,11.70
2018-05-12T15:58:53.592Z,7.10
2018-05-12T16:01:21.106Z,5.83
2018-05-12T16:03:48.740Z,7.93
2018-05-12T16:06:17.089Z,8.40
2018-05-12T16:08:45.858Z,7.87
2018-05-12T16:11:13.478Z,6.30
2018-05-12T16:13:41.550Z,6.27
2018-05-12T16:16:09.067Z,7.37
2018-05-12T16:18:36.734Z,8.13
2018-05-12T16:21:04.255Z,6.10
2018-05-12T16:23:32.503Z,7.70
2018-05-12T16:26:00.201Z,13.27
2018-05-12T16:28:28.830Z,7.80
2018-05-12T16:30:56.428Z,6.03
2018-05-12T16:33:25.108Z,7.17
2018-05-12T16:35:52.616Z,9.63
2018-05-12T16:38:20.129Z,7.23
2018-05-12T16:40:47.958Z,6.23
2018-05-12T16:43:15.472Z,7.67
2018-05-12T16:45:42.996Z,8.10
2018-05-12T16:48:10.940Z,9.00
2018-05-12T16:50:38.560Z,10.40
2018-05-12T16:53:06.396Z,11.20
2018-05-12T16:55:34.128Z,8.50
2018-05-12T16:58:01.763Z,10.33
2018-05-12T17:00:29.283Z,10.30
2018-05-12T17:02:57.069Z,9.33
2018-05-12T17:05:24.673Z,9.70
2018-05-12T17:07:52.208Z,6.23
2018-05-12T17:10:19.901Z,7.43
2018-05-12T17:12:47.583Z,6.40
2018-05-12T17:15:15.137Z,5.43
2018-05-12T17:17:43.090Z,6.20
2018-05-12T17:20:10.617Z,9.30
2018-05-12T17:22:38.125Z,6.30
2018-05-12T17:25:06.094Z,15.50
2018-05-12T17:27:34.064Z,7.40
2018-05-12T17:30:01.575Z,13.13
2018-05-12T17:32:29.152Z,9.20
2018-05-12T17:34:56.656Z,7.50
2018-05-12T17:37:24.179Z,7.30
2018-05-12T17:39:52.017Z,10.27
2018-05-12T17:42:19.536Z,5.53
2018-05-12T17:44:47.167Z,6.80
2018-05-12T17:47:15.076Z,5.63
2018-05-12T17:49:43.335Z,7.80
2018-05-12T17:52:11.498Z,4.90
2018-05-12T17:54:39.101Z,7.30
2018-05-12T17:57:06.787Z,7.40
2018-05-12T17:59:36.494Z,6.93
2018-05-12T18:02:05.296Z,7.70
2018-05-12T18:04:32.975Z,8.60
2018-05-12T18:07:01.144Z,11.90
2018-05-12T18:09:29.027Z,8.97
2018-05-12T18:11:57.778Z,5.40
2018-05-12T18:14:25.791Z,9.27
2018-05-12T18:16:53.396Z,5.70
2018-05-12T18:19:21.117Z,6.80
2018-05-12T18:21:48.633Z,6.47
2018-05-12T18:24:16.530Z,12.10
2018-05-12T18:26:44.112Z,13.77
2018-05-12T18:29:12.264Z,13.00
2018-05-12T18:31:39.881Z,10.43
2018-05-12T18:34:07.449Z,14.10
2018-05-12T18:36:34.976Z,12.13
2018-05-12T18:39:03.097Z,7.27
2018-05-12T18:41:30.880Z,12.50
2018-05-12T18:43:58.539Z,15.10
2018-05-12T18:46:26.411Z,11.50
2018-05-12T18:48:53.959Z,12.70
2018-05-12T18:51:21.822Z,18.73
2018-05-12T18:53:49.906Z,17.50
2018-05-12T18:56:17.542Z,16.73
2018-05-12T18:58:45.061Z,16.20
2018-05-12T19:01:13.088Z,16.40
2018-05-12T19:03:40.759Z,20.60
2018-05-12T19:06:08.322Z,17.23
2018-05-12T19:08:36.092Z,19.30
2018-05-12T19:11:03.666Z,16.63
2018-05-12T19:13:32.061Z,15.00
2018-05-12T19:15:59.864Z,14.77
2018-05-12T19:18:27.550Z,20.50
2018-05-12T19:20:55.327Z,14.70
2018-05-12T19:23:22.921Z,15.13
2018-05-12T19:25:50.642Z,15.60
2018-05-12T19:28:18.274Z,19.30
2018-05-12T19:30:46.029Z,13.63
2018-05-12T19:33:13.555Z,17.67
2018-05-12T19:35:41.094Z,21.77
2018-05-12T19:38:09.000Z,22.13
2018-05-12T19:40:36.708Z,17.20
2018-05-12T19:43:05.353Z,21.47
2018-05-12T19:45:34.537Z,18.30
2018-05-12T19:48:02.131Z,67.30
2018-05-12T19:50:29.701Z,49.33
2018-05-12T19:52:57.641Z,57.83
2018-05-12T19:55:25.156Z,44.13
2018-05-12T19:57:52.713Z,23.20
2018-05-12T20:00:20.652Z,22.87
2018-05-12T20:02:48.199Z,16.50
2018-05-12T20:05:15.989Z,21.33
2018-05-12T20:07:43.552Z,19.60
2018-05-12T20:10:11.184Z,17.70
2018-05-12T20:12:38.769Z,31.07
2018-05-12T20:15:06.726Z,19.47
2018-05-12T20:17:34.387Z,21.00
2018-05-12T20:20:02.040Z,14.00
2018-05-12T20:22:30.207Z,16.47
2018-05-12T20:24:57.760Z,21.23
2018-05-12T20:27:25.317Z,50.23
2018-05-12T20:29:53.009Z,19.80
2018-05-12T20:32:20.551Z,14.27
2018-05-12T20:34:48.174Z,29.33
2018-05-12T20:37:16.098Z,18.17
2018-05-12T20:39:43.602Z,19.60
2018-05-12T20:42:11.193Z,20.43
2018-05-12T20:44:38.884Z,49.37
2018-05-12T20:47:06.686Z,16.13
2018-05-12T20:49:34.323Z,44.93
2018-05-12T20:52:02.093Z,29.83
2018-05-12T20:54:29.613Z,38.00
2018-05-12T20:56:57.195Z,18.60
2018-05-12T20:59:25.007Z,22.33
2018-05-12T21:01:52.932Z,23.43
2018-05-12T21:04:20.507Z,29.53
2018-05-12T21:06:48.060Z,24.83
2018-05-12T21:09:17.364Z,18.03
2018-05-12T21:11:45.521Z,22.93
2018-05-12T21:14:13.411Z,13.33
2018-05-12T21:16:40.896Z,9.87
2018-05-12T21:19:08.677Z,16.73
2018-05-12T21:21:36.586Z,19.40
2018-05-12T21:24:04.451Z,14.23
2018-05-12T21:26:32.108Z,13.40
2018-05-12T21:29:00.687Z,17.07
2018-05-12T21:31:28.319Z,24.80
2018-05-12T21:33:55.860Z,15.80
2018-05-12T21:36:23.776Z,7.40
2018-05-12T21:38:51.361Z,7.57
2018-05-12T21:41:19.000Z,22.30
2018-05-12T21:43:47.258Z,18.87
2018-05-12T21:46:14.833Z,18.27
2018-05-12T21:48:42.417Z,16.80
2018-05-12T21:51:10.345Z,36.70
2018-05-12T21:53:37.920Z,40.53
2018-05-12T21:56:05.974Z,14.63
2018-05-12T21:58:33.859Z,13.33
2018-05-12T22:01:01.421Z,22.20
2018-05-12T22:03:29.692Z,20.90
2018-05-12T22:05:57.545Z,18.33
2018-05-12T22:08:25.060Z,15.97
2018-05-12T22:10:52.580Z,21.80
2018-05-12T22:13:21.361Z,17.90
2018-05-12T22:15:48.871Z,18.13
2018-05-12T22:18:17.679Z,17.00
2018-05-12T22:20:45.569Z,14.70
2018-05-12T22:23:13.152Z,16.53
2018-05-12T22:25:41.415Z,14.93
2018-05-12T22:28:08.984Z,21.97
2018-05-12T22:30:36.588Z,20.90
2018-05-12T22:33:04.090Z,20.10
2018-05-12T22:35:32.165Z,16.40
2018-05-12T22:37:59.710Z,15.33
2018-05-12T22:40:27.236Z,17.33
2018-05-12T22:42:54.808Z,14.60
2018-05-12T22:45:22.329Z,17.00
2018-05-12T22:47:49.854Z,21.83
2018-05-12T22:50:17.938Z,27.73
2018-05-12T22:52:45.460Z,27.43
2018-05-12T22:55:12.985Z,18.20
2018-05-12T22:57:40.688Z,23.60
2018-05-12T23:00:08.226Z,21.53
2018-05-12T23:02:35.753Z,23.33
2018-05-12T23:05:03.585Z,20.70
2018-05-12T23:07:31.101Z,24.27
2018-05-12T23:09:58.625Z,25.60
2018-05-12T23:12:26.200Z,17.07
2018-05-12T23:14:53.725Z,22.10
2018-05-12T23:17:21.246Z,21.40
2018-05-12T23:19:49.027Z,22.20
2018-05-12T23:22:16.557Z,21.90
2018-05-12T23:24:44.074Z,19.67
2018-05-12T23:27:12.550Z,18.40
2018-05-12T23:29:40.070Z,18.43
2018-05-12T23:32:07.590Z,22.00
2018-05-12T23:34:35.150Z,24.80
2018-05-12T23:37:02.674Z,23.43
2018-05-12T23:39:30.245Z,25.63
2018-05-12T23:41:57.814Z,25.50
2018-05-12T23:44:25.332Z,20.80
2018-05-12T23:46:52.849Z,21.37
2018-05-12T23:49:20.427Z,24.73
2018-05-12T23:51:47.948Z,31.20
2018-05-12T23:54:15.477Z,21.30
2018-05-12T23:56:43.246Z,23.20
2018-05-12T23:59:10.768Z,21.13
